createdAt,value
2019-05-12T00:01:14.181Z,95380.39
2019-05-12T00:03:44.155Z,95375.87
2019-05-12T00:06:14.137Z,95373.73
2019-05-12T00:08:45.074Z,95382.45
2019-05-12T00:11:15.116Z,95380.25
2019-05-12T00:13:47.364Z,95381.91
2019-05-12T00:16:17.688Z,95385.45
2019-05-12T00:18:48.388Z,95385.81
2019-05-12T00:21:18.741Z,95387.59
2019-05-12T00:24:08.013Z,95397.66
2019-05-12T00:26:38.352Z,95395.12
2019-05-12T00:29:08.861Z,95394.55
2019-05-12T00:31:38.832Z,95396.75
2019-05-12T00:34:08.827Z,95403.84
2019-05-12T00:36:38.801Z,95399.45
2019-05-12T00:39:08.920Z,95403.44
2019-05-12T00:41:39.199Z,95401.30
2019-05-12T00:44:09.237Z,95396.75
2019-05-12T00:46:39.206Z,95398.05
2019-05-12T00:49:09.172Z,95398.09
2019-05-12T00:51:39.180Z,95404.05
2019-05-12T00:54:09.482Z,95401.67
2019-05-12T00:56:39.525Z,95402.03
2019-05-12T00:59:09.428Z,95402.79
2019-05-12T01:01:39.428Z,95407.56
2019-05-12T01:04:09.397Z,95404.45
2019-05-12T01:06:40.467Z,95412.77
2019-05-12T01:09:10.435Z,95413.93
2019-05-12T01:11:40.440Z,95421.05
2019-05-12T01:14:10.412Z,95417.04
2019-05-12T01:16:40.412Z,95415.73
2019-05-12T01:19:10.314Z,95425.79
2019-05-12T01:21:40.324Z,95425.83
2019-05-12T01:24:10.315Z,95435.27
2019-05-12T01:26:40.300Z,95435.77
2019-05-12T01:29:10.200Z,95447.07
2019-05-12T01:31:41.787Z,95448.95
2019-05-12T01:34:11.771Z,95453.83
2019-05-12T01:36:41.769Z,95452.91
2019-05-12T01:39:11.695Z,95461.10
2019-05-12T01:41:41.660Z,95462.30
2019-05-12T01:44:11.597Z,95464.09
2019-05-12T01:46:41.598Z,95471.20
2019-05-12T01:49:11.641Z,95477.48
2019-05-12T01:51:41.648Z,95475.34
2019-05-12T01:54:14.835Z,95482.82
2019-05-12T01:56:43.308Z,95484.64
2019-05-12T01:59:13.210Z,95492.67
2019-05-12T02:01:43.226Z,95500.02
2019-05-12T02:04:13.292Z,95504.48
2019-05-12T02:06:43.374Z,95499.80
2019-05-12T02:09:18.707Z,95500.95
2019-05-12T02:11:49.256Z,95504.63
2019-05-12T02:14:19.221Z,95504.03
2019-05-12T02:16:49.226Z,95505.00
2019-05-12T02:19:19.195Z,95508.31
2019-05-12T02:21:49.269Z,95511.85
2019-05-12T02:24:26.568Z,95514.00
2019-05-12T02:26:51.016Z,95510.66
2019-05-12T02:29:20.844Z,95514.00
2019-05-12T02:31:50.846Z,95518.23
2019-05-12T02:34:20.750Z,95521.44
2019-05-12T02:36:50.722Z,95525.81
2019-05-12T02:39:20.827Z,95528.64
2019-05-12T02:41:51.493Z,95542.14
2019-05-12T02:44:24.802Z,95544.84
2019-05-12T02:46:55.220Z,95549.20
2019-05-12T02:49:25.472Z,95551.94
2019-05-12T02:51:55.467Z,95557.37
2019-05-12T02:54:45.948Z,95563.86
2019-05-12T02:56:58.200Z,95567.66
2019-05-12T02:59:29.964Z,95579.34
2019-05-12T03:02:05.043Z,95579.47
2019-05-12T03:04:35.176Z,95580.03
2019-05-12T03:07:06.598Z,95586.66
2019-05-12T03:09:36.779Z,95589.26
2019-05-12T03:12:06.786Z,95598.45
2019-05-12T03:14:40.523Z,95595.73
2019-05-12T03:17:08.466Z,95605.66
2019-05-12T03:19:38.400Z,95612.50
2019-05-12T03:22:08.465Z,95613.92
2019-05-12T03:24:38.376Z,95618.05
2019-05-12T03:27:08.274Z,95623.15
2019-05-12T03:29:38.272Z,95619.45
2019-05-12T03:32:08.986Z,95624.41
2019-05-12T03:34:40.593Z,95629.23
2019-05-12T03:37:10.602Z,95637.84
2019-05-12T03:39:40.600Z,95646.45
2019-05-12T03:42:10.602Z,95653.78
2019-05-12T03:44:40.613Z,95657.33
2019-05-12T03:47:10.605Z,95659.31
2019-05-12T03:49:40.573Z,95657.52
2019-05-12T03:52:10.575Z,95664.63
2019-05-12T03:54:40.538Z,95668.16
2019-05-12T03:57:10.531Z,95679.37
2019-05-12T03:59:40.539Z,95678.89
2019-05-12T04:02:10.538Z,95689.71
2019-05-12T04:04:40.508Z,95696.48
2019-05-12T04:07:10.509Z,95699.39
2019-05-12T04:09:40.473Z,95705.53
2019-05-12T04:12:10.482Z,95714.62
2019-05-12T04:14:40.489Z,95721.18
2019-05-12T04:17:10.456Z,95725.29
2019-05-12T04:19:40.455Z,95727.55
2019-05-12T04:22:10.388Z,95736.93
2019-05-12T04:24:44.402Z,95740.95
2019-05-12T04:27:15.005Z,95751.80
2019-05-12T04:29:44.920Z,95754.05
2019-05-12T04:32:14.987Z,95751.95
2019-05-12T04:34:44.955Z,95765.15
2019-05-12T04:37:15.011Z,95763.27
2019-05-12T04:39:44.926Z,95776.63
2019-05-12T04:42:15.110Z,95773.52
2019-05-12T04:44:45.017Z,95786.87
2019-05-12T04:47:14.917Z,95798.18
2019-05-12T04:49:45.286Z,95805.75
2019-05-12T04:52:15.700Z,95809.14
2019-05-12T04:54:45.785Z,95817.05
2019-05-12T04:57:15.798Z,95822.65
2019-05-12T04:59:45.694Z,95830.06
2019-05-12T05:02:15.624Z,95833.55
2019-05-12T05:04:45.523Z,95841.95
2019-05-12T05:07:15.514Z,95843.42
2019-05-12T05:09:45.497Z,95854.72
2019-05-12T05:12:15.461Z,95857.45
2019-05-12T05:14:45.281Z,95855.70
2019-05-12T05:17:15.280Z,95864.64
2019-05-12T05:19:45.133Z,95871.89
2019-05-12T05:22:15.132Z,95876.31
2019-05-12T05:24:46.166Z,95875.61
2019-05-12T05:27:16.168Z,95887.92
2019-05-12T05:29:46.128Z,95892.92
2019-05-12T05:32:16.121Z,95898.48
2019-05-12T05:34:53.714Z,95909.88
2019-05-12T05:37:17.724Z,95918.50
2019-05-12T05:39:49.710Z,95924.33
2019-05-12T05:42:22.225Z,95928.19
2019-05-12T05:44:50.942Z,95928.19
2019-05-12T05:47:25.669Z,95934.21
2019-05-12T05:49:53.990Z,95941.04
2019-05-12T05:52:32.888Z,95945.20
2019-05-12T05:54:55.778Z,95955.11
2019-05-12T05:57:28.585Z,95953.36
2019-05-12T05:59:57.372Z,95961.01
2019-05-12T06:02:32.146Z,95965.73
2019-05-12T06:04:58.928Z,95976.25
2019-05-12T06:07:34.791Z,95970.42
2019-05-12T06:10:00.515Z,95979.01
2019-05-12T06:12:30.521Z,95976.17
2019-05-12T06:15:00.505Z,95985.14
2019-05-12T06:17:30.676Z,95985.03
2019-05-12T06:20:00.640Z,95994.37
2019-05-12T06:22:33.809Z,95997.34
2019-05-12T06:25:05.068Z,96004.52
2019-05-12T06:27:35.923Z,96007.57
2019-05-12T06:30:09.233Z,96015.92
2019-05-12T06:32:41.182Z,96012.98
2019-05-12T06:35:10.816Z,96012.87
2019-05-12T06:37:40.700Z,96020.97
2019-05-12T06:40:10.669Z,96023.85
2019-05-12T06:42:40.666Z,96025.44
2019-05-12T06:45:10.624Z,96027.58
2019-05-12T06:47:45.283Z,96029.49
2019-05-12T06:50:14.611Z,96028.38
2019-05-12T06:52:49.019Z,96029.24
2019-05-12T06:55:16.314Z,96031.65
2019-05-12T06:57:50.121Z,96041.55
2019-05-12T07:00:22.337Z,96041.55
2019-05-12T07:02:54.742Z,96048.41
2019-05-12T07:05:23.282Z,96054.70
2019-05-12T07:07:53.513Z,96051.16
2019-05-12T07:10:36.767Z,96063.37
2019-05-12T07:13:01.492Z,96070.97
2019-05-12T07:15:29.424Z,96071.43
2019-05-12T07:18:04.244Z,96068.36
2019-05-12T07:20:38.812Z,96075.23
2019-05-12T07:23:06.229Z,96087.91
2019-05-12T07:25:36.756Z,96082.17
2019-05-12T07:28:08.210Z,96086.14
2019-05-12T07:30:38.713Z,96089.01
2019-05-12T07:33:08.674Z,96099.58
2019-05-12T07:35:40.082Z,96101.44
2019-05-12T07:38:21.116Z,96105.05
2019-05-12T07:40:47.260Z,96103.93
2019-05-12T07:43:20.719Z,96109.73
2019-05-12T07:45:56.249Z,96109.11
2019-05-12T07:48:23.930Z,96114.46
2019-05-12T07:50:56.403Z,96115.85
2019-05-12T07:53:25.538Z,96112.70
2019-05-12T07:55:55.507Z,96122.44
2019-05-12T07:58:25.446Z,96126.97
2019-05-12T08:01:02.418Z,96134.08
2019-05-12T08:03:27.106Z,96129.45
2019-05-12T08:06:01.564Z,96133.16
2019-05-12T08:08:28.844Z,96134.36
2019-05-12T08:10:58.809Z,96137.59
2019-05-12T08:13:31.319Z,96136.30
2019-05-12T08:16:00.548Z,96143.05
2019-05-12T08:18:36.034Z,96144.00
2019-05-12T08:21:03.771Z,96151.95
2019-05-12T08:23:34.027Z,96144.35
2019-05-12T08:26:12.080Z,96151.20
2019-05-12T08:28:40.310Z,96155.77
2019-05-12T08:31:08.311Z,96156.11
2019-05-12T08:33:38.575Z,96167.50
2019-05-12T08:36:14.025Z,96167.68
2019-05-12T08:38:40.262Z,96167.61
2019-05-12T08:41:10.158Z,96172.33
2019-05-12T08:43:45.612Z,96184.00
2019-05-12T08:46:15.199Z,96184.00
2019-05-12T08:48:44.573Z,96187.70
2019-05-12T08:51:19.859Z,96187.22
2019-05-12T08:53:46.716Z,96194.91
2019-05-12T08:56:19.481Z,96197.04
2019-05-12T08:58:51.509Z,96200.91
2019-05-12T09:01:20.556Z,96207.22
2019-05-12T09:03:53.338Z,96207.52
2019-05-12T09:06:24.600Z,96213.06
2019-05-12T09:08:55.100Z,96216.86
2019-05-12T09:11:25.072Z,96217.42
2019-05-12T09:14:00.338Z,96225.09
2019-05-12T09:16:26.745Z,96227.61
2019-05-12T09:18:57.251Z,96232.40
2019-05-12T09:21:31.799Z,96233.80
2019-05-12T09:23:59.232Z,96241.88
2019-05-12T09:26:29.128Z,96245.86
2019-05-12T09:28:59.871Z,96251.48
2019-05-12T09:31:30.152Z,96250.13
2019-05-12T09:34:05.482Z,96250.13
2019-05-12T09:36:33.835Z,96256.14
2019-05-12T09:39:06.246Z,96268.72
2019-05-12T09:41:42.623Z,96271.31
2019-05-12T09:44:07.952Z,96272.71
2019-05-12T09:46:37.927Z,96276.13
2019-05-12T09:49:07.928Z,96270.02
2019-05-12T09:51:42.758Z,96278.75
2019-05-12T09:54:09.626Z,96286.05
2019-05-12T09:56:41.317Z,96283.45
2019-05-12T09:59:20.785Z,96283.45
2019-05-12T10:01:45.821Z,96280.30
2019-05-12T10:04:16.358Z,96280.30
2019-05-12T10:06:46.581Z,96287.82
2019-05-12T10:09:19.905Z,96288.94
2019-05-12T10:11:51.835Z,96286.41
2019-05-12T10:14:20.470Z,96296.55
2019-05-12T10:16:51.981Z,96295.13
2019-05-12T10:19:23.574Z,96295.13
2019-05-12T10:21:58.142Z,96305.23
2019-05-12T10:24:26.201Z,96305.23
2019-05-12T10:26:56.518Z,96306.44
2019-05-12T10:29:30.536Z,96310.33
2019-05-12T10:31:59.430Z,96305.52
2019-05-12T10:34:38.100Z,96310.04
2019-05-12T10:37:03.637Z,96315.23
2019-05-12T10:39:33.806Z,96315.23
2019-05-12T10:42:04.158Z,96312.00
2019-05-12T10:44:39.241Z,96315.32
2019-05-12T10:47:06.511Z,96317.73
2019-05-12T10:49:36.836Z,96320.22
2019-05-12T10:52:07.783Z,96317.27
2019-05-12T10:54:38.028Z,96320.40
2019-05-12T10:57:08.385Z,96324.23
2019-05-12T10:59:43.955Z,96335.92
2019-05-12T11:02:10.670Z,96329.69
2019-05-12T11:04:41.868Z,96329.16
2019-05-12T11:07:13.539Z,96326.17
2019-05-12T11:09:44.700Z,96328.66
2019-05-12T11:12:19.239Z,96341.17
2019-05-12T11:14:48.059Z,96332.27
2019-05-12T11:17:18.105Z,96337.27
2019-05-12T11:19:51.308Z,96336.81
2019-05-12T11:22:20.435Z,96336.81
2019-05-12T11:24:52.750Z,96347.75
2019-05-12T11:27:24.040Z,96345.91
2019-05-12T11:29:54.637Z,96354.89
2019-05-12T11:32:28.850Z,96354.89
2019-05-12T11:34:59.930Z,96363.94
2019-05-12T11:37:30.241Z,96361.91
2019-05-12T11:40:00.297Z,96362.83
2019-05-12T11:42:30.277Z,96360.64
2019-05-12T11:45:00.720Z,96361.94
2019-05-12T11:47:30.772Z,96363.40
2019-05-12T11:50:05.041Z,96365.81
2019-05-12T11:52:33.430Z,96366.92
2019-05-12T11:55:05.340Z,96367.08
2019-05-12T11:57:35.366Z,96367.08
2019-05-12T12:00:10.472Z,96380.07
2019-05-12T12:02:40.623Z,96370.98
2019-05-12T12:05:10.873Z,96383.81
2019-05-12T12:07:49.085Z,96382.02
2019-05-12T12:10:14.364Z,96382.02
2019-05-12T12:12:48.961Z,96386.25
2019-05-12T12:15:20.487Z,96386.25
2019-05-12T12:17:49.118Z,96390.23
2019-05-12T12:20:22.585Z,96394.59
2019-05-12T12:22:51.232Z,96390.72
2019-05-12T12:25:23.391Z,96396.37
2019-05-12T12:27:53.846Z,96401.20
2019-05-12T12:30:24.681Z,96401.20
2019-05-12T12:32:57.168Z,96406.94
2019-05-12T12:35:26.738Z,96413.33
2019-05-12T12:37:57.772Z,96416.00
2019-05-12T12:40:28.859Z,96412.91
2019-05-12T12:42:59.065Z,96408.90
2019-05-12T12:45:36.855Z,96408.90
2019-05-12T12:48:05.225Z,96411.77
2019-05-12T12:50:35.346Z,96411.77
2019-05-12T12:53:05.619Z,96411.00
2019-05-12T12:55:38.050Z,96411.00
2019-05-12T12:58:08.301Z,96418.91
2019-05-12T13:00:47.180Z,96421.09
2019-05-12T13:03:10.726Z,96430.30
2019-05-12T13:05:40.706Z,96430.30
2019-05-12T13:08:10.766Z,96428.74
2019-05-12T13:10:47.014Z,96429.51
2019-05-12T13:13:14.700Z,96428.40
2019-05-12T13:15:45.286Z,96427.17
2019-05-12T13:18:23.938Z,96424.12
2019-05-12T13:20:46.983Z,96429.05
2019-05-12T13:23:17.033Z,96431.22
2019-05-12T13:25:50.520Z,96434.28
2019-05-12T13:28:19.478Z,96433.22
2019-05-12T13:30:50.553Z,96433.70
2019-05-12T13:33:20.539Z,96433.70
2019-05-12T13:35:55.835Z,96444.08
2019-05-12T13:38:23.834Z,96430.53
2019-05-12T13:40:54.342Z,96438.52
2019-05-12T13:43:24.395Z,96439.11
2019-05-12T13:45:54.408Z,96439.56
2019-05-12T13:48:24.426Z,96439.56
2019-05-12T13:51:07.429Z,96447.72
2019-05-12T13:53:26.232Z,96450.45
2019-05-12T13:55:56.386Z,96449.23
2019-05-12T13:58:28.096Z,96446.51
2019-05-12T14:01:13.415Z,96447.88
2019-05-12T14:03:29.971Z,96451.17
2019-05-12T14:06:00.131Z,96455.63
2019-05-12T14:08:30.328Z,96453.52
2019-05-12T14:11:00.452Z,96455.93
2019-05-12T14:13:30.507Z,96458.00
2019-05-12T14:16:02.961Z,96471.13
2019-05-12T14:18:33.105Z,96471.28
2019-05-12T14:21:04.292Z,96475.19
2019-05-12T14:23:34.666Z,96468.72
2019-05-12T14:26:07.635Z,96477.79
2019-05-12T14:28:39.481Z,96467.39
2019-05-12T14:31:08.212Z,96475.00
2019-05-12T14:33:39.928Z,96481.58
2019-05-12T14:36:15.814Z,96483.23
2019-05-12T14:38:41.738Z,96483.11
2019-05-12T14:41:14.300Z,96485.06
2019-05-12T14:43:47.627Z,96484.80
2019-05-12T14:46:15.445Z,96483.53
2019-05-12T14:48:50.172Z,96481.13
2019-05-12T14:51:17.366Z,96485.83
2019-05-12T14:53:48.077Z,96485.59
2019-05-12T14:56:18.274Z,96490.03
2019-05-12T14:58:50.168Z,96487.89
2019-05-12T15:01:20.062Z,96489.38
2019-05-12T15:03:50.122Z,96494.73
2019-05-12T15:06:25.606Z,96489.45
2019-05-12T15:08:53.965Z,96490.39
2019-05-12T15:11:23.782Z,96496.25
2019-05-12T15:13:54.220Z,96502.63
2019-05-12T15:16:24.558Z,96499.94
2019-05-12T15:18:54.575Z,96495.45
2019-05-12T15:21:27.448Z,96494.30
2019-05-12T15:23:56.450Z,96489.42
2019-05-12T15:26:27.413Z,96489.42
2019-05-12T15:28:57.430Z,96501.48
2019-05-12T15:31:27.442Z,96495.61
2019-05-12T15:33:57.472Z,96499.25
2019-05-12T15:36:27.455Z,96504.64
2019-05-12T15:38:59.024Z,96500.30
2019-05-12T15:41:29.146Z,96505.78
2019-05-12T15:43:59.229Z,96508.61
2019-05-12T15:46:33.012Z,96508.49
2019-05-12T15:49:03.283Z,96514.43
2019-05-12T15:51:35.083Z,96512.67
2019-05-12T15:54:11.066Z,96510.02
2019-05-12T15:56:36.037Z,96520.81
2019-05-12T15:59:06.103Z,96513.33
2019-05-12T16:01:36.107Z,96513.33
2019-05-12T16:04:06.124Z,96518.59
2019-05-12T16:06:36.116Z,96523.34
2019-05-12T16:09:07.229Z,96527.52
2019-05-12T16:11:37.283Z,96532.61
2019-05-12T16:14:07.299Z,96534.30
2019-05-12T16:16:42.488Z,96539.97
2019-05-12T16:19:09.886Z,96539.91
2019-05-12T16:21:40.061Z,96540.09
2019-05-12T16:24:11.349Z,96547.26
2019-05-12T16:26:42.907Z,96544.85
2019-05-12T16:29:13.505Z,96546.16
2019-05-12T16:31:45.562Z,96544.39
2019-05-12T16:34:15.352Z,96552.09
2019-05-12T16:36:49.851Z,96544.91
2019-05-12T16:39:16.945Z,96550.86
2019-05-12T16:41:46.994Z,96553.20
2019-05-12T16:44:22.813Z,96557.88
2019-05-12T16:46:48.774Z,96555.59
2019-05-12T16:49:18.798Z,96561.45
2019-05-12T16:51:50.049Z,96561.45
2019-05-12T16:54:20.063Z,96571.56
2019-05-12T16:56:49.972Z,96568.10
2019-05-12T16:59:22.111Z,96568.17
2019-05-12T17:01:54.144Z,96579.09
2019-05-12T17:04:23.925Z,96575.13
2019-05-12T17:06:54.639Z,96573.88
2019-05-12T17:09:24.656Z,96570.81
2019-05-12T17:11:55.681Z,96558.21
2019-05-12T17:14:28.625Z,96570.00
2019-05-12T17:16:57.639Z,96574.33
2019-05-12T17:19:27.722Z,96574.33
2019-05-12T17:21:59.419Z,96580.39
2019-05-12T17:24:29.740Z,96585.33
2019-05-12T17:26:59.729Z,96584.86
2019-05-12T17:29:30.529Z,96587.01
2019-05-12T17:32:00.735Z,96592.48
2019-05-12T17:34:30.751Z,96592.72
2019-05-12T17:37:00.807Z,96592.22
2019-05-12T17:39:35.540Z,96592.72
2019-05-12T17:42:02.683Z,96594.17
2019-05-12T17:44:36.927Z,96597.16
2019-05-12T17:47:04.402Z,96603.75
2019-05-12T17:49:34.411Z,96606.55
2019-05-12T17:52:13.128Z,96609.61
2019-05-12T17:54:36.105Z,96607.66
2019-05-12T17:57:09.563Z,96609.34
2019-05-12T17:59:37.659Z,96609.34
2019-05-12T18:02:13.278Z,96622.74
2019-05-12T18:04:39.366Z,96630.83
2019-05-12T18:07:13.194Z,96632.13
2019-05-12T18:09:41.122Z,96630.25
2019-05-12T18:12:13.659Z,96633.62
2019-05-12T18:14:52.014Z,96641.78
2019-05-12T18:17:14.514Z,96637.80
2019-05-12T18:19:44.551Z,96629.48
2019-05-12T18:22:14.559Z,96632.94
2019-05-12T18:24:49.349Z,96643.55
2019-05-12T18:27:16.323Z,96638.34
2019-05-12T18:29:46.381Z,96639.59
2019-05-12T18:32:16.437Z,96636.41
2019-05-12T18:34:46.458Z,96649.92
2019-05-12T18:37:16.439Z,96649.56
2019-05-12T18:39:46.458Z,96647.77
2019-05-12T18:42:16.432Z,96653.55
2019-05-12T18:44:46.445Z,96647.80
2019-05-12T18:47:22.324Z,96653.86
2019-05-12T18:49:50.149Z,96662.89
2019-05-12T18:52:19.951Z,96663.46
2019-05-12T18:54:52.589Z,96664.28
2019-05-12T18:57:23.826Z,96660.47
2019-05-12T18:59:57.112Z,96655.95
2019-05-12T19:02:28.361Z,96668.46
2019-05-12T19:04:56.807Z,96662.91
2019-05-12T19:07:39.309Z,96672.47
2019-05-12T19:09:58.501Z,96668.39
2019-05-12T19:12:32.447Z,96674.42
2019-05-12T19:15:01.539Z,96674.57
2019-05-12T19:17:31.717Z,96681.18
2019-05-12T19:20:01.770Z,96674.40
2019-05-12T19:22:33.640Z,96674.40
2019-05-12T19:25:07.403Z,96680.44
2019-05-12T19:27:37.485Z,96680.23
2019-05-12T19:30:07.605Z,96686.28
2019-05-12T19:32:37.588Z,96687.94
2019-05-12T19:35:09.495Z,96675.21
2019-05-12T19:37:42.327Z,96683.30
2019-05-12T19:40:14.089Z,96686.46
2019-05-12T19:42:43.436Z,96689.52
2019-05-12T19:45:19.563Z,96696.77
2019-05-12T19:47:49.067Z,96696.20
2019-05-12T19:50:19.026Z,96701.41
2019-05-12T19:52:49.042Z,96706.88
2019-05-12T19:55:20.254Z,96698.06
2019-05-12T19:57:50.751Z,96710.67
2019-05-12T20:00:20.850Z,96712.82
2019-05-12T20:02:50.928Z,96713.28
2019-05-12T20:05:23.583Z,96711.41
2019-05-12T20:07:53.667Z,96717.00
2019-05-12T20:10:24.505Z,96717.64
2019-05-12T20:12:57.068Z,96723.22
2019-05-12T20:15:30.229Z,96722.36
2019-05-12T20:17:58.369Z,96722.36
2019-05-12T20:20:36.732Z,96720.05
2019-05-12T20:23:00.038Z,96727.75
2019-05-12T20:25:30.011Z,96731.26
2019-05-12T20:28:05.613Z,96721.25
2019-05-12T20:30:31.718Z,96720.51
2019-05-12T20:33:04.127Z,96725.70
2019-05-12T20:35:39.184Z,96727.45
2019-05-12T20:38:05.943Z,96727.45
2019-05-12T20:40:37.833Z,96741.87
2019-05-12T20:43:08.605Z,96741.87
2019-05-12T20:45:40.656Z,96743.80
2019-05-12T20:48:11.030Z,96746.11
2019-05-12T20:50:41.011Z,96744.69
2019-05-12T20:53:11.025Z,96741.53
2019-05-12T20:55:41.498Z,96736.05
2019-05-12T20:58:13.626Z,96733.79
2019-05-12T21:00:45.627Z,96733.79
2019-05-12T21:03:15.010Z,96740.78
2019-05-12T21:05:45.053Z,96737.69
2019-05-12T21:08:15.571Z,96744.02
2019-05-12T21:10:45.619Z,96738.77
2019-05-12T21:13:20.455Z,96739.59
2019-05-12T21:15:47.408Z,96744.80
2019-05-12T21:18:17.486Z,96741.64
2019-05-12T21:20:52.284Z,96744.14
2019-05-12T21:23:20.251Z,96750.17
2019-05-12T21:25:53.391Z,96751.02
2019-05-12T21:28:23.801Z,96756.05
2019-05-12T21:30:55.827Z,96761.31
2019-05-12T21:33:25.287Z,96761.31
2019-05-12T21:35:55.274Z,96762.55
2019-05-12T21:38:29.554Z,96761.31
2019-05-12T21:40:56.887Z,96761.98
2019-05-12T21:43:26.892Z,96757.98
2019-05-12T21:46:01.082Z,96762.60
2019-05-12T21:48:29.349Z,96765.66
2019-05-12T21:50:59.815Z,96770.02
2019-05-12T21:53:29.820Z,96765.66
2019-05-12T21:56:03.846Z,96767.70
2019-05-12T21:58:31.429Z,96770.40
2019-05-12T22:01:07.576Z,96767.24
2019-05-12T22:03:36.551Z,96771.81
2019-05-12T22:06:19.096Z,96777.98
2019-05-12T22:08:38.310Z,96777.98
2019-05-12T22:11:11.427Z,96782.82
2019-05-12T22:13:46.765Z,96782.16
2019-05-12T22:16:14.186Z,96787.58
2019-05-12T22:18:44.249Z,96788.30
2019-05-12T22:21:14.232Z,96779.77
2019-05-12T22:23:50.956Z,96776.97
2019-05-12T22:26:15.957Z,96776.97
2019-05-12T22:28:50.686Z,96776.89
2019-05-12T22:31:17.788Z,96774.22
2019-05-12T22:33:53.414Z,96774.22
2019-05-12T22:36:25.312Z,96782.08
2019-05-12T22:39:00.286Z,96775.77
2019-05-12T22:41:24.205Z,96779.83
2019-05-12T22:43:54.812Z,96783.66
2019-05-12T22:46:31.743Z,96785.03
2019-05-12T22:48:56.795Z,96775.19
2019-05-12T22:51:27.164Z,96775.19
2019-05-12T22:54:00.497Z,96771.77
2019-05-12T22:56:29.202Z,96786.78
2019-05-12T22:59:00.587Z,96784.74
2019-05-12T23:01:32.945Z,96784.74
2019-05-12T23:04:03.830Z,96786.42
2019-05-12T23:06:42.216Z,96787.34
2019-05-12T23:09:07.080Z,96782.72
2019-05-12T23:11:37.974Z,96782.94
2019-05-12T23:14:12.529Z,96786.27
2019-05-12T23:16:39.954Z,96786.50
2019-05-12T23:19:12.117Z,96786.66
2019-05-12T23:21:43.854Z,96789.38
2019-05-12T23:24:14.187Z,96787.77
2019-05-12T23:26:47.782Z,96787.77
2019-05-12T23:29:20.566Z,96792.90
2019-05-12T23:31:47.796Z,96785.45
2019-05-12T23:34:17.782Z,96789.06
2019-05-12T23:36:50.479Z,96789.06
2019-05-12T23:39:19.466Z,96787.05
2019-05-12T23:41:49.506Z,96774.20
2019-05-12T23:44:19.521Z,96774.47
2019-05-12T23:46:49.494Z,96774.47
2019-05-12T23:49:19.587Z,96768.81
2019-05-12T23:51:49.572Z,96768.27
2019-05-12T23:54:19.581Z,96768.27
2019-05-12T23:56:49.596Z,96763.36
2019-05-12T23:59:19.579Z,96760.12
